sensor_id;sensor_type;location;lat;lon;timestamp;pressure;altitude;pressure_sealevel;temperature;humidity
14204;BME280;7185;51.854;6.622;2023-01-29T00:00:19;102721.09;;;1.54;83.64
14204;BME280;7185;51.854;6.622;2023-01-29T00:02:50;102716.09;;;1.57;83.85
14204;BME280;7185;51.854;6.622;2023-01-29T00:05:22;102712.19;;;1.33;84.50
14204;BME280;7185;51.854;6.622;2023-01-29T00:07:56;102712.75;;;1.27;84.16
14204;BME280;7185;51.854;6.622;2023-01-29T00:10:27;102709.03;;;1.22;84.75
14204;BME280;7185;51.854;6.622;2023-01-29T00:12:59;102707.03;;;1.33;84.68
14204;BME280;7185;51.854;6.622;2023-01-29T00:15:30;102713.41;;;1.39;84.59
14204;BME280;7185;51.854;6.622;2023-01-29T00:18:02;102712.94;;;1.47;84.41
14204;BME280;7185;51.854;6.622;2023-01-29T00:20:34;102705.72;;;1.24;84.67
14204;BME280;7185;51.854;6.622;2023-01-29T00:23:06;102698.47;;;1.34;85.08
14204;BME280;7185;51.854;6.622;2023-01-29T00:25:38;102700.50;;;1.39;84.76
14204;BME280;7185;51.854;6.622;2023-01-29T00:28:10;102696.91;;;1.21;85.92
14204;BME280;7185;51.854;6.622;2023-01-29T00:30:41;102691.44;;;1.31;85.00
14204;BME280;7185;51.854;6.622;2023-01-29T00:33:13;102704.94;;;1.42;85.13
14204;BME280;7185;51.854;6.622;2023-01-29T00:35:45;102705.44;;;1.51;84.05
14204;BME280;7185;51.854;6.622;2023-01-29T00:38:17;102705.59;;;1.54;84.04
14204;BME280;7185;51.854;6.622;2023-01-29T00:40:49;102697.75;;;1.53;83.91
14204;BME280;7185;51.854;6.622;2023-01-29T00:43:38;102694.41;;;1.39;85.29
14204;BME280;7185;51.854;6.622;2023-01-29T00:46:27;102693.78;;;1.26;85.71
14204;BME280;7185;51.854;6.622;2023-01-29T00:48:59;102688.19;;;1.35;85.33
14204;BME280;7185;51.854;6.622;2023-01-29T00:51:30;102679.31;;;1.30;85.58
14204;BME280;7185;51.854;6.622;2023-01-29T00:54:04;102675.69;;;1.26;86.03
14204;BME280;7185;51.854;6.622;2023-01-29T00:56:36;102666.41;;;1.30;86.26
14204;BME280;7185;51.854;6.622;2023-01-29T00:59:08;102663.41;;;1.39;85.71
14204;BME280;7185;51.854;6.622;2023-01-29T01:01:39;102661.56;;;1.36;85.53
14204;BME280;7185;51.854;6.622;2023-01-29T01:04:29;102661.00;;;1.58;85.25
14204;BME280;7185;51.854;6.622;2023-01-29T01:07:00;102662.66;;;1.41;84.76
14204;BME280;7185;51.854;6.622;2023-01-29T01:09:35;102647.25;;;1.43;85.49
14204;BME280;7185;51.854;6.622;2023-01-29T01:12:32;102644.81;;;1.46;85.22
14204;BME280;7185;51.854;6.622;2023-01-29T01:15:05;102657.59;;;1.43;84.48
14204;BME280;7185;51.854;6.622;2023-01-29T01:17:36;102658.47;;;1.60;84.23
14204;BME280;7185;51.854;6.622;2023-01-29T01:20:10;102660.34;;;1.46;84.05
14204;BME280;7185;51.854;6.622;2023-01-29T01:22:41;102665.75;;;1.51;84.59
14204;BME280;7185;51.854;6.622;2023-01-29T01:25:14;102674.97;;;1.46;84.57
14204;BME280;7185;51.854;6.622;2023-01-29T01:27:46;102684.59;;;1.48;84.86
14204;BME280;7185;51.854;6.622;2023-01-29T01:30:18;102684.81;;;1.53;84.73
14204;BME280;7185;51.854;6.622;2023-01-29T01:32:50;102689.03;;;1.51;85.57
14204;BME280;7185;51.854;6.622;2023-01-29T01:35:21;102689.75;;;1.48;84.77
14204;BME280;7185;51.854;6.622;2023-01-29T01:37:53;102691.84;;;1.55;85.69
14204;BME280;7185;51.854;6.622;2023-01-29T01:40:26;102683.44;;;1.59;84.67
14204;BME280;7185;51.854;6.622;2023-01-29T01:42:59;102674.00;;;1.43;84.55
14204;BME280;7185;51.854;6.622;2023-01-29T01:45:32;102677.47;;;1.27;85.55
14204;BME280;7185;51.854;6.622;2023-01-29T01:48:07;102681.00;;;1.46;84.73
14204;BME280;7185;51.854;6.622;2023-01-29T01:50:45;102679.22;;;1.45;85.33
14204;BME280;7185;51.854;6.622;2023-01-29T01:53:22;102679.22;;;1.45;85.37
14204;BME280;7185;51.854;6.622;2023-01-29T01:56:01;102675.53;;;1.40;85.64
14204;BME280;7185;51.854;6.622;2023-01-29T01:58:36;102684.41;;;1.45;85.21
14204;BME280;7185;51.854;6.622;2023-01-29T02:01:10;102677.13;;;1.38;85.30
14204;BME280;7185;51.854;6.622;2023-01-29T02:03:44;102670.22;;;1.37;84.87
14204;BME280;7185;51.854;6.622;2023-01-29T02:06:38;102672.59;;;1.17;85.87
14204;BME280;7185;51.854;6.622;2023-01-29T02:09:30;102667.94;;;1.26;86.61
14204;BME280;7185;51.854;6.622;2023-01-29T02:12:10;102670.84;;;1.16;86.39
14204;BME280;7185;51.854;6.622;2023-01-29T02:14:42;102666.16;;;1.09;86.96
14204;BME280;7185;51.854;6.622;2023-01-29T02:17:15;102676.16;;;1.19;86.49
14204;BME280;7185;51.854;6.622;2023-01-29T02:19:56;102684.91;;;1.21;86.39
14204;BME280;7185;51.854;6.622;2023-01-29T02:23:00;102678.44;;;1.30;86.40
14204;BME280;7185;51.854;6.622;2023-01-29T02:25:56;102683.75;;;1.33;86.77
14204;BME280;7185;51.854;6.622;2023-01-29T02:28:36;102682.97;;;1.34;86.05
14204;BME280;7185;51.854;6.622;2023-01-29T02:31:16;102678.59;;;1.33;85.98
14204;BME280;7185;51.854;6.622;2023-01-29T02:34:02;102675.19;;;1.34;86.22
14204;BME280;7185;51.854;6.622;2023-01-29T02:36:39;102670.44;;;1.25;86.16
14204;BME280;7185;51.854;6.622;2023-01-29T02:39:22;102677.94;;;1.20;86.25
14204;BME280;7185;51.854;6.622;2023-01-29T02:42:01;102691.03;;;1.40;86.73
14204;BME280;7185;51.854;6.622;2023-01-29T02:44:42;102694.72;;;1.12;86.97
14204;BME280;7185;51.854;6.622;2023-01-29T02:47:21;102679.41;;;1.15;87.66
14204;BME280;7185;51.854;6.622;2023-01-29T02:49:59;102692.69;;;0.75;89.03
14204;BME280;7185;51.854;6.622;2023-01-29T02:52:38;102691.53;;;1.16;87.23
14204;BME280;7185;51.854;6.622;2023-01-29T02:55:16;102698.50;;;1.02;88.28
14204;BME280;7185;51.854;6.622;2023-01-29T02:57:54;102691.69;;;0.88;88.30
14204;BME280;7185;51.854;6.622;2023-01-29T03:00:33;102684.13;;;1.07;88.13
14204;BME280;7185;51.854;6.622;2023-01-29T03:03:12;102681.31;;;1.19;87.21
14204;BME280;7185;51.854;6.622;2023-01-29T03:05:51;102687.63;;;1.24;87.33
14204;BME280;7185;51.854;6.622;2023-01-29T03:08:30;102689.72;;;1.15;87.24
14204;BME280;7185;51.854;6.622;2023-01-29T03:11:13;102691.94;;;0.92;87.36
14204;BME280;7185;51.854;6.622;2023-01-29T03:13:49;102690.47;;;0.81;89.16
14204;BME280;7185;51.854;6.622;2023-01-29T03:16:28;102683.41;;;0.93;89.00
14204;BME280;7185;51.854;6.622;2023-01-29T03:19:06;102692.66;;;0.90;88.21
14204;BME280;7185;51.854;6.622;2023-01-29T03:21:42;102693.53;;;0.90;88.24
14204;BME280;7185;51.854;6.622;2023-01-29T03:24:32;102695.66;;;0.98;88.30
14204;BME280;7185;51.854;6.622;2023-01-29T03:27:26;102697.44;;;0.99;87.86
14204;BME280;7185;51.854;6.622;2023-01-29T03:30:17;102700.50;;;0.91;88.20
14204;BME280;7185;51.854;6.622;2023-01-29T03:33:09;102694.06;;;1.00;88.86
14204;BME280;7185;51.854;6.622;2023-01-29T03:35:46;102689.69;;;0.99;89.06
14204;BME280;7185;51.854;6.622;2023-01-29T03:38:21;102689.22;;;1.06;88.67
14204;BME280;7185;51.854;6.622;2023-01-29T03:41:04;102669.53;;;1.08;88.55
14204;BME280;7185;51.854;6.622;2023-01-29T03:43:45;102671.66;;;1.15;88.27
14204;BME280;7185;51.854;6.622;2023-01-29T03:46:24;102664.50;;;0.94;88.42
14204;BME280;7185;51.854;6.622;2023-01-29T03:49:02;102663.72;;;1.12;88.79
14204;BME280;7185;51.854;6.622;2023-01-29T03:51:44;102651.13;;;1.02;88.45
14204;BME280;7185;51.854;6.622;2023-01-29T03:54:24;102644.94;;;0.83;89.91
14204;BME280;7185;51.854;6.622;2023-01-29T03:57:02;102627.13;;;0.88;89.61
14204;BME280;7185;51.854;6.622;2023-01-29T03:59:38;102620.75;;;0.81;89.78
14204;BME280;7185;51.854;6.622;2023-01-29T04:02:13;102617.91;;;0.76;90.45
14204;BME280;7185;51.854;6.622;2023-01-29T04:04:50;102608.94;;;0.70;90.32
14204;BME280;7185;51.854;6.622;2023-01-29T04:07:24;102610.72;;;0.71;90.24
14204;BME280;7185;51.854;6.622;2023-01-29T04:10:00;102609.78;;;0.54;91.07
14204;BME280;7185;51.854;6.622;2023-01-29T04:12:37;102604.41;;;0.66;91.08
14204;BME280;7185;51.854;6.622;2023-01-29T04:15:12;102604.41;;;0.66;91.40
14204;BME280;7185;51.854;6.622;2023-01-29T04:17:48;102612.16;;;0.82;90.28
14204;BME280;7185;51.854;6.622;2023-01-29T04:20:23;102628.75;;;1.02;89.90
14204;BME280;7185;51.854;6.622;2023-01-29T04:22:55;102625.91;;;0.98;89.18
14204;BME280;7185;51.854;6.622;2023-01-29T04:25:30;102628.50;;;0.98;89.55
14204;BME280;7185;51.854;6.622;2023-01-29T04:28:10;102617.56;;;0.70;90.22
14204;BME280;7185;51.854;6.622;2023-01-29T04:30:53;102607.72;;;0.79;90.27
14204;BME280;7185;51.854;6.622;2023-01-29T04:33:32;102598.97;;;0.92;90.60
14204;BME280;7185;51.854;6.622;2023-01-29T04:36:20;102586.88;;;1.08;89.73
14204;BME280;7185;51.854;6.622;2023-01-29T04:39:03;102591.38;;;0.79;90.04
14204;BME280;7185;51.854;6.622;2023-01-29T04:41:42;102585.63;;;0.85;90.39
14204;BME280;7185;51.854;6.622;2023-01-29T04:44:22;102587.88;;;0.78;90.08
14204;BME280;7185;51.854;6.622;2023-01-29T04:47:01;102593.13;;;0.97;90.29
14204;BME280;7185;51.854;6.622;2023-01-29T04:49:42;102588.00;;;1.13;89.37
14204;BME280;7185;51.854;6.622;2023-01-29T04:52:23;102579.59;;;1.01;89.14
14204;BME280;7185;51.854;6.622;2023-01-29T04:55:03;102576.50;;;0.91;90.08
14204;BME280;7185;51.854;6.622;2023-01-29T04:57:43;102581.03;;;1.12;89.11
14204;BME280;7185;51.854;6.622;2023-01-29T05:00:18;102573.16;;;1.09;88.90
14204;BME280;7185;51.854;6.622;2023-01-29T05:02:51;102574.09;;;0.78;90.07
14204;BME280;7185;51.854;6.622;2023-01-29T05:05:23;102568.94;;;0.94;89.83
14204;BME280;7185;51.854;6.622;2023-01-29T05:07:57;102564.91;;;1.00;89.64
14204;BME280;7185;51.854;6.622;2023-01-29T05:10:29;102560.84;;;0.88;89.85
14204;BME280;7185;51.854;6.622;2023-01-29T05:13:03;102561.56;;;0.86;90.49
14204;BME280;7185;51.854;6.622;2023-01-29T05:15:38;102568.91;;;0.78;91.19
14204;BME280;7185;51.854;6.622;2023-01-29T05:18:10;102553.53;;;0.96;90.07
14204;BME280;7185;51.854;6.622;2023-01-29T05:20:42;102559.41;;;0.93;90.35
14204;BME280;7185;51.854;6.622;2023-01-29T05:23:18;102555.94;;;0.93;90.16
14204;BME280;7185;51.854;6.622;2023-01-29T05:25:50;102557.31;;;0.86;90.26
14204;BME280;7185;51.854;6.622;2023-01-29T05:28:22;102566.50;;;0.98;90.39
14204;BME280;7185;51.854;6.622;2023-01-29T05:30:54;102576.69;;;1.11;89.94
14204;BME280;7185;51.854;6.622;2023-01-29T05:33:28;102567.13;;;1.10;89.59
14204;BME280;7185;51.854;6.622;2023-01-29T05:36:00;102572.72;;;1.01;90.02
14204;BME280;7185;51.854;6.622;2023-01-29T05:38:33;102570.13;;;1.01;90.35
14204;BME280;7185;51.854;6.622;2023-01-29T05:41:04;102577.34;;;1.07;90.27
14204;BME280;7185;51.854;6.622;2023-01-29T05:43:36;102587.50;;;1.20;90.70
14204;BME280;7185;51.854;6.622;2023-01-29T05:46:07;102589.03;;;1.17;89.71
14204;BME280;7185;51.854;6.622;2023-01-29T05:48:40;102596.97;;;1.20;89.76
14204;BME280;7185;51.854;6.622;2023-01-29T05:51:11;102597.09;;;1.23;89.80
14204;BME280;7185;51.854;6.622;2023-01-29T05:53:44;102591.69;;;1.18;89.81
14204;BME280;7185;51.854;6.622;2023-01-29T05:56:15;102592.00;;;1.24;90.19
14204;BME280;7185;51.854;6.622;2023-01-29T05:58:48;102588.78;;;1.29;89.82
14204;BME280;7185;51.854;6.622;2023-01-29T06:01:23;102597.19;;;1.24;90.16
14204;BME280;7185;51.854;6.622;2023-01-29T06:03:54;102604.69;;;1.36;89.68
14204;BME280;7185;51.854;6.622;2023-01-29T06:06:26;102611.63;;;1.37;89.52
14204;BME280;7185;51.854;6.622;2023-01-29T06:08:59;102611.06;;;1.26;90.13
14204;BME280;7185;51.854;6.622;2023-01-29T06:11:30;102604.72;;;1.20;90.10
14204;BME280;7185;51.854;6.622;2023-01-29T06:14:02;102598.97;;;1.25;89.84
14204;BME280;7185;51.854;6.622;2023-01-29T06:16:33;102581.44;;;1.03;91.58
14204;BME280;7185;51.854;6.622;2023-01-29T06:19:05;102584.50;;;0.79;93.08
14204;BME280;7185;51.854;6.622;2023-01-29T06:21:36;102576.28;;;1.03;92.79
14204;BME280;7185;51.854;6.622;2023-01-29T06:24:10;102573.53;;;1.00;92.09
14204;BME280;7185;51.854;6.622;2023-01-29T06:26:42;102574.41;;;1.17;91.63
14204;BME280;7185;51.854;6.622;2023-01-29T06:29:16;102564.91;;;1.00;93.22
14204;BME280;7185;51.854;6.622;2023-01-29T06:31:47;102573.03;;;1.07;92.82
14204;BME280;7185;51.854;6.622;2023-01-29T06:34:19;102575.38;;;1.03;92.94
14204;BME280;7185;51.854;6.622;2023-01-29T06:36:50;102583.53;;;0.94;93.69
14204;BME280;7185;51.854;6.622;2023-01-29T06:39:23;102573.03;;;1.07;93.91
14204;BME280;7185;51.854;6.622;2023-01-29T06:41:55;102575.06;;;0.97;94.42
14204;BME280;7185;51.854;6.622;2023-01-29T06:44:26;102579.00;;;1.06;94.07
14204;BME280;7185;51.854;6.622;2023-01-29T06:46:58;102584.75;;;1.17;94.09
14204;BME280;7185;51.854;6.622;2023-01-29T06:49:29;102574.13;;;0.94;94.12
14204;BME280;7185;51.854;6.622;2023-01-29T06:52:01;102582.81;;;0.80;96.21
14204;BME280;7185;51.854;6.622;2023-01-29T06:54:34;102584.34;;;0.93;95.38
14204;BME280;7185;51.854;6.622;2023-01-29T06:57:05;102569.88;;;0.97;96.25
14204;BME280;7185;51.854;6.622;2023-01-29T06:59:37;102570.38;;;1.06;95.11
14204;BME280;7185;51.854;6.622;2023-01-29T07:02:08;102573.03;;;1.07;94.95
14204;BME280;7185;51.854;6.622;2023-01-29T07:04:40;102572.16;;;1.07;94.73
14204;BME280;7185;51.854;6.622;2023-01-29T07:07:12;102576.28;;;1.20;94.05
14204;BME280;7185;51.854;6.622;2023-01-29T07:09:44;102577.81;;;1.16;94.14
14204;BME280;7185;51.854;6.622;2023-01-29T07:12:16;102585.66;;;1.18;94.53
14204;BME280;7185;51.854;6.622;2023-01-29T07:14:53;102577.59;;;1.11;94.05
14204;BME280;7185;51.854;6.622;2023-01-29T07:17:25;102563.28;;;1.02;94.94
14204;BME280;7185;51.854;6.622;2023-01-29T07:19:56;102573.03;;;1.07;94.44
14204;BME280;7185;51.854;6.622;2023-01-29T07:22:28;102572.00;;;1.20;93.55
14204;BME280;7185;51.854;6.622;2023-01-29T07:25:01;102561.19;;;1.11;94.29
14204;BME280;7185;51.854;6.622;2023-01-29T07:27:40;102565.41;;;1.09;93.81
14204;BME280;7185;51.854;6.622;2023-01-29T07:30:12;102565.84;;;1.18;93.57
14204;BME280;7185;51.854;6.622;2023-01-29T07:32:44;102564.16;;;1.02;94.15
14204;BME280;7185;51.854;6.622;2023-01-29T07:35:16;102570.56;;;1.09;95.13
14204;BME280;7185;51.854;6.622;2023-01-29T07:37:48;102568.47;;;1.02;95.04
14204;BME280;7185;51.854;6.622;2023-01-29T07:40:21;102575.38;;;1.19;94.44
14204;BME280;7185;51.854;6.622;2023-01-29T07:42:57;102573.03;;;1.07;94.42
14204;BME280;7185;51.854;6.622;2023-01-29T07:45:29;102577.81;;;1.16;93.81
14204;BME280;7185;51.854;6.622;2023-01-29T07:48:01;102576.59;;;1.09;93.70
14204;BME280;7185;51.854;6.622;2023-01-29T07:50:34;102580.72;;;1.22;93.54
14204;BME280;7185;51.854;6.622;2023-01-29T07:53:06;102587.94;;;1.46;93.00
14204;BME280;7185;51.854;6.622;2023-01-29T07:55:42;102588.78;;;1.29;92.82
14204;BME280;7185;51.854;6.622;2023-01-29T07:58:14;102580.06;;;1.26;93.15
14204;BME280;7185;51.854;6.622;2023-01-29T08:00:45;102563.50;;;1.23;93.33
14204;BME280;7185;51.854;6.622;2023-01-29T08:03:18;102553.72;;;1.34;93.17
14204;BME280;7185;51.854;6.622;2023-01-29T08:05:50;102558.41;;;1.41;93.47
14204;BME280;7185;51.854;6.622;2023-01-29T08:08:21;102555.53;;;1.18;94.06
14204;BME280;7185;51.854;6.622;2023-01-29T08:10:54;102551.56;;;1.25;93.69
14204;BME280;7185;51.854;6.622;2023-01-29T08:13:26;102549.63;;;1.21;94.68
14204;BME280;7185;51.854;6.622;2023-01-29T08:15:58;102563.94;;;1.14;93.90
14204;BME280;7185;51.854;6.622;2023-01-29T08:18:31;102554.69;;;1.36;93.95
14204;BME280;7185;51.854;6.622;2023-01-29T08:21:03;102547.13;;;1.22;94.71
14204;BME280;7185;51.854;6.622;2023-01-29T08:23:35;102541.78;;;1.03;94.37
14204;BME280;7185;51.854;6.622;2023-01-29T08:26:08;102539.53;;;1.25;94.12
14204;BME280;7185;51.854;6.622;2023-01-29T08:31:19;102527.50;;;1.09;94.92
14204;BME280;7185;51.854;6.622;2023-01-29T08:36:25;102528.50;;;1.46;93.40
14204;BME280;7185;51.854;6.622;2023-01-29T08:38:57;102523.22;;;1.26;94.10
14204;BME280;7185;51.854;6.622;2023-01-29T08:41:30;102512.56;;;1.20;94.00
14204;BME280;7185;51.854;6.622;2023-01-29T08:44:02;102518.84;;;1.25;93.63
14204;BME280;7185;51.854;6.622;2023-01-29T08:46:34;102501.44;;;1.21;94.19
14204;BME280;7185;51.854;6.622;2023-01-29T08:49:06;102497.75;;;1.00;94.97
14204;BME280;7185;51.854;6.622;2023-01-29T08:51:38;102484.63;;;1.13;94.68
14204;BME280;7185;51.854;6.622;2023-01-29T08:54:09;102485.72;;;1.35;94.67
14204;BME280;7185;51.854;6.622;2023-01-29T08:56:42;102488.06;;;1.30;94.34
14204;BME280;7185;51.854;6.622;2023-01-29T08:59:14;102481.91;;;1.45;93.58
14204;BME280;7185;51.854;6.622;2023-01-29T09:01:46;102478.78;;;1.34;93.59
14204;BME280;7185;51.854;6.622;2023-01-29T09:04:17;102485.47;;;1.47;93.50
14204;BME280;7185;51.854;6.622;2023-01-29T09:06:49;102475.22;;;1.32;94.78
14204;BME280;7185;51.854;6.622;2023-01-29T09:09:20;102470.84;;;1.31;94.09
14204;BME280;7185;51.854;6.622;2023-01-29T09:11:53;102475.03;;;1.45;94.09
14204;BME280;7185;51.854;6.622;2023-01-29T09:14:25;102475.84;;;1.44;93.98
14204;BME280;7185;51.854;6.622;2023-01-29T09:19:31;102486.03;;;1.41;93.55
14204;BME280;7185;51.854;6.622;2023-01-29T09:22:03;102495.16;;;1.69;92.72
14204;BME280;7185;51.854;6.622;2023-01-29T09:24:35;102511.03;;;1.58;92.43
14204;BME280;7185;51.854;6.622;2023-01-29T09:27:08;102512.44;;;1.70;92.13
14204;BME280;7185;51.854;6.622;2023-01-29T09:29:41;102500.47;;;1.72;92.23
14204;BME280;7185;51.854;6.622;2023-01-29T09:32:13;102504.69;;;1.70;92.77
14204;BME280;7185;51.854;6.622;2023-01-29T09:34:45;102497.69;;;2.61;88.71
14204;BME280;7185;51.854;6.622;2023-01-29T09:37:17;102503.06;;;1.72;92.33
14204;BME280;7185;51.854;6.622;2023-01-29T09:39:49;102505.41;;;1.49;94.01
14204;BME280;7185;51.854;6.622;2023-01-29T09:42:27;102500.09;;;1.82;93.07
14204;BME280;7185;51.854;6.622;2023-01-29T09:45:04;102504.63;;;1.34;94.96
14204;BME280;7185;51.854;6.622;2023-01-29T09:47:36;102510.69;;;1.52;94.29
14204;BME280;7185;51.854;6.622;2023-01-29T09:50:13;102510.59;;;1.85;93.26
14204;BME280;7185;51.854;6.622;2023-01-29T09:52:50;102505.84;;;1.95;92.35
14204;BME280;7185;51.854;6.622;2023-01-29T09:55:26;102511.47;;;1.86;92.32
14204;BME280;7185;51.854;6.622;2023-01-29T09:58:05;102505.78;;;2.11;91.00
14204;BME280;7185;51.854;6.622;2023-01-29T10:00:47;102505.72;;;2.10;91.23
14204;BME280;7185;51.854;6.622;2023-01-29T10:03:34;102509.56;;;2.00;91.36
14204;BME280;7185;51.854;6.622;2023-01-29T10:06:20;102504.97;;;1.94;91.42
14204;BME280;7185;51.854;6.622;2023-01-29T10:12:15;102500.84;;;1.98;92.01
14204;BME280;7185;51.854;6.622;2023-01-29T10:14:59;102505.13;;;1.97;91.21
14204;BME280;7185;51.854;6.622;2023-01-29T10:17:43;102496.88;;;1.86;92.74
14204;BME280;7185;51.854;6.622;2023-01-29T10:20:37;102504.53;;;1.85;92.24
14204;BME280;7185;51.854;6.622;2023-01-29T10:23:21;102491.50;;;2.19;92.22
14204;BME280;7185;51.854;6.622;2023-01-29T10:25:54;102492.84;;;2.11;92.06
14204;BME280;7185;51.854;6.622;2023-01-29T10:28:29;102486.59;;;2.26;90.80
14204;BME280;7185;51.854;6.622;2023-01-29T10:31:07;102483.59;;;2.16;91.25
14204;BME280;7185;51.854;6.622;2023-01-29T10:33:41;102486.19;;;1.98;92.04
14204;BME280;7185;51.854;6.622;2023-01-29T10:36:16;102481.63;;;2.11;92.39
14204;BME280;7185;51.854;6.622;2023-01-29T10:38:51;102477.47;;;2.14;91.05
14204;BME280;7185;51.854;6.622;2023-01-29T10:41:36;102476.63;;;2.15;91.61
14204;BME280;7185;51.854;6.622;2023-01-29T10:44:19;102466.41;;;1.99;93.08
14204;BME280;7185;51.854;6.622;2023-01-29T10:47:05;102452.53;;;2.16;91.72
14204;BME280;7185;51.854;6.622;2023-01-29T10:49:55;102451.19;;;2.44;91.19
14204;BME280;7185;51.854;6.622;2023-01-29T10:52:40;102449.16;;;2.37;91.08
14204;BME280;7185;51.854;6.622;2023-01-29T10:55:28;102444.91;;;2.19;90.91
14204;BME280;7185;51.854;6.622;2023-01-29T10:58:12;102448.66;;;2.26;90.62
14204;BME280;7185;51.854;6.622;2023-01-29T11:00:50;102448.50;;;2.41;90.29
14204;BME280;7185;51.854;6.622;2023-01-29T11:03:26;102450.91;;;2.38;90.31
14204;BME280;7185;51.854;6.622;2023-01-29T11:06:06;102439.22;;;2.46;90.79
14204;BME280;7185;51.854;6.622;2023-01-29T11:08:45;102433.72;;;2.38;90.49
14204;BME280;7185;51.854;6.622;2023-01-29T11:11:39;102432.06;;;2.60;89.94
14204;BME280;7185;51.854;6.622;2023-01-29T11:14:17;102422.09;;;2.69;89.85
14204;BME280;7185;51.854;6.622;2023-01-29T11:16:52;102418.78;;;2.52;89.69
14204;BME280;7185;51.854;6.622;2023-01-29T11:19:37;102414.19;;;2.47;89.30
14204;BME280;7185;51.854;6.622;2023-01-29T11:22:12;102404.53;;;2.43;90.38
14204;BME280;7185;51.854;6.622;2023-01-29T11:24:45;102399.44;;;2.64;90.08
14204;BME280;7185;51.854;6.622;2023-01-29T11:27:22;102398.19;;;2.55;89.49
14204;BME280;7185;51.854;6.622;2023-01-29T11:29:56;102401.88;;;2.61;89.68
14204;BME280;7185;51.854;6.622;2023-01-29T11:32:29;102396.53;;;2.77;88.92
14204;BME280;7185;51.854;6.622;2023-01-29T11:35:19;102393.81;;;2.74;88.88
14204;BME280;7185;51.854;6.622;2023-01-29T11:37:51;102381.38;;;2.86;88.32
14204;BME280;7185;51.854;6.622;2023-01-29T11:40:41;102376.75;;;2.79;87.76
14204;BME280;7185;51.854;6.622;2023-01-29T11:43:28;102375.00;;;2.78;88.64
14204;BME280;7185;51.854;6.622;2023-01-29T11:46:02;102359.81;;;2.87;87.52
14204;BME280;7185;51.854;6.622;2023-01-29T11:48:40;102357.69;;;2.77;87.93
14204;BME280;7185;51.854;6.622;2023-01-29T11:51:22;102356.56;;;2.92;86.95
14204;BME280;7185;51.854;6.622;2023-01-29T11:53:57;102352.09;;;2.89;86.33
14204;BME280;7185;51.854;6.622;2023-01-29T11:56:33;102341.13;;;2.95;86.11
14204;BME280;7185;51.854;6.622;2023-01-29T11:59:25;102326.41;;;2.94;85.98
14204;BME280;7185;51.854;6.622;2023-01-29T12:02:31;102319.38;;;3.12;86.03
14204;BME280;7185;51.854;6.622;2023-01-29T12:05:13;102319.63;;;2.97;86.82
14204;BME280;7185;51.854;6.622;2023-01-29T12:07:49;102319.88;;;3.03;85.68
14204;BME280;7185;51.854;6.622;2023-01-29T12:10:29;102313.63;;;2.98;85.31
14204;BME280;7185;51.854;6.622;2023-01-29T12:13:08;102305.19;;;3.02;85.64
14204;BME280;7185;51.854;6.622;2023-01-29T12:16:04;102303.16;;;3.18;85.57
14204;BME280;7185;51.854;6.622;2023-01-29T12:18:43;102294.88;;;3.04;85.22
14204;BME280;7185;51.854;6.622;2023-01-29T12:21:23;102291.16;;;3.20;84.06
14204;BME280;7185;51.854;6.622;2023-01-29T12:24:06;102283.59;;;3.03;84.67
14204;BME280;7185;51.854;6.622;2023-01-29T12:26:46;102278.25;;;3.22;84.00
14204;BME280;7185;51.854;6.622;2023-01-29T12:29:32;102268.81;;;3.01;85.03
14204;BME280;7185;51.854;6.622;2023-01-29T12:32:14;102266.97;;;3.19;85.58
14204;BME280;7185;51.854;6.622;2023-01-29T12:34:54;102266.44;;;2.84;84.82
14204;BME280;7185;51.854;6.622;2023-01-29T12:37:37;102258.59;;;3.04;84.94
14204;BME280;7185;51.854;6.622;2023-01-29T12:40:18;102251.75;;;3.06;84.65
14204;BME280;7185;51.854;6.622;2023-01-29T12:42:56;102249.00;;;3.01;84.03
14204;BME280;7185;51.854;6.622;2023-01-29T12:45:35;102261.19;;;3.27;84.82
14204;BME280;7185;51.854;6.622;2023-01-29T12:48:11;102249.69;;;3.20;84.00
14204;BME280;7185;51.854;6.622;2023-01-29T12:50:44;102249.88;;;3.25;85.67
14204;BME280;7185;51.854;6.622;2023-01-29T12:53:24;102241.97;;;3.22;84.66
14204;BME280;7185;51.854;6.622;2023-01-29T12:56:00;102243.56;;;3.18;84.78
14204;BME280;7185;51.854;6.622;2023-01-29T12:58:37;102239.97;;;3.14;85.82
14204;BME280;7185;51.854;6.622;2023-01-29T13:01:26;102236.50;;;3.37;84.31
14204;BME280;7185;51.854;6.622;2023-01-29T13:04:04;102224.19;;;3.08;85.32
14204;BME280;7185;51.854;6.622;2023-01-29T13:06:40;102208.94;;;2.93;84.77
14204;BME280;7185;51.854;6.622;2023-01-29T13:09:16;102223.00;;;3.00;84.97
14204;BME280;7185;51.854;6.622;2023-01-29T13:11:53;102208.53;;;3.05;85.41
14204;BME280;7185;51.854;6.622;2023-01-29T13:14:32;102210.94;;;3.23;84.86
14204;BME280;7185;51.854;6.622;2023-01-29T13:17:13;102205.81;;;3.25;84.45
14204;BME280;7185;51.854;6.622;2023-01-29T13:19:49;102198.97;;;3.27;84.22
14204;BME280;7185;51.854;6.622;2023-01-29T13:22:25;102201.19;;;3.40;84.28
14204;BME280;7185;51.854;6.622;2023-01-29T13:24:57;102204.72;;;3.42;83.45
14204;BME280;7185;51.854;6.622;2023-01-29T13:27:34;102194.66;;;3.27;84.08
14204;BME280;7185;51.854;6.622;2023-01-29T13:30:23;102194.13;;;3.36;83.96
14204;BME280;7185;51.854;6.622;2023-01-29T13:32:57;102197.53;;;3.35;83.99
14204;BME280;7185;51.854;6.622;2023-01-29T13:35:39;102193.78;;;3.27;83.74
14204;BME280;7185;51.854;6.622;2023-01-29T13:38:22;102178.78;;;3.42;84.26
14204;BME280;7185;51.854;6.622;2023-01-29T13:40:59;102179.13;;;3.51;83.27
14204;BME280;7185;51.854;6.622;2023-01-29T13:43:35;102179.84;;;3.47;83.62
14204;BME280;7185;51.854;6.622;2023-01-29T13:46:10;102173.69;;;3.44;84.72
14204;BME280;7185;51.854;6.622;2023-01-29T13:48:45;102168.41;;;3.42;83.51
14204;BME280;7185;51.854;6.622;2023-01-29T13:51:20;102164.69;;;3.34;84.18
14204;BME280;7185;51.854;6.622;2023-01-29T13:53:55;102158.03;;;3.42;84.24
14204;BME280;7185;51.854;6.622;2023-01-29T13:56:41;102155.91;;;3.30;83.86
14204;BME280;7185;51.854;6.622;2023-01-29T13:59:23;102150.19;;;3.16;85.30
14204;BME280;7185;51.854;6.622;2023-01-29T14:02:16;102155.88;;;3.06;84.93
14204;BME280;7185;51.854;6.622;2023-01-29T14:04:50;102145.69;;;3.35;84.82
14204;BME280;7185;51.854;6.622;2023-01-29T14:07:47;102157.38;;;3.24;85.97
14204;BME280;7185;51.854;6.622;2023-01-29T14:10:24;102148.66;;;3.22;85.16